createdAt,value
2022-09-05T00:01:53.711Z,3.25
2022-09-05T00:06:59.560Z,2.90
2022-09-05T00:12:00.784Z,3.45
2022-09-05T00:17:09.842Z,4.03
2022-09-05T00:24:29.348Z,4.00
2022-09-05T00:28:25.918Z,3.78
2022-09-05T00:33:31.703Z,3.08
2022-09-05T00:38:37.017Z,3.60
2022-09-05T00:43:46.803Z,3.65
2022-09-05T00:48:49.091Z,3.40
2022-09-05T00:54:02.636Z,3.45
2022-09-05T00:59:40.667Z,4.05
2022-09-05T01:04:50.832Z,3.90
2022-09-05T01:10:03.586Z,2.72
2022-09-05T01:15:18.296Z,3.63
2022-09-05T01:20:36.483Z,4.37
2022-09-05T01:25:55.306Z,3.63
2022-09-05T01:31:02.288Z,3.63
2022-09-05T01:36:18.076Z,4.10
2022-09-05T01:41:23.666Z,4.43
2022-09-05T01:46:34.253Z,4.05
2022-09-05T01:51:40.929Z,3.47
2022-09-05T01:56:48.023Z,4.43
2022-09-05T02:02:13.080Z,4.03
2022-09-05T02:07:31.258Z,3.75
2022-09-05T02:12:35.179Z,4.15
2022-09-05T02:17:50.350Z,3.80
2022-09-05T02:23:00.063Z,4.97
2022-09-05T02:28:11.138Z,4.35
2022-09-05T02:33:17.083Z,4.68
2022-09-05T02:40:51.988Z,4.35
2022-09-05T02:45:17.415Z,4.50
2022-09-05T02:49:24.583Z,4.63
2022-09-05T02:57:43.077Z,5.03
2022-09-05T03:00:05.189Z,4.03
2022-09-05T03:05:12.777Z,4.60
2022-09-05T03:10:53.693Z,4.20
2022-09-05T03:16:27.473Z,4.25
2022-09-05T03:21:54.185Z,4.88
2022-09-05T03:27:32.449Z,5.25
2022-09-05T03:33:18.434Z,5.22
2022-09-05T03:38:51.827Z,4.53
2022-09-05T03:44:13.386Z,4.63
2022-09-05T03:53:16.415Z,5.28
2022-09-05T03:57:28.078Z,4.40
2022-09-05T04:01:10.772Z,5.38
2022-09-05T04:08:15.120Z,5.05
2022-09-05T04:12:13.290Z,5.85
2022-09-05T04:17:24.079Z,6.53
2022-09-05T04:22:41.606Z,7.18
2022-09-05T04:28:25.848Z,6.05
2022-09-05T04:33:43.674Z,6.75
2022-09-05T04:39:21.799Z,6.25
2022-09-05T04:44:27.431Z,6.40
2022-09-05T04:49:28.674Z,7.35
2022-09-05T05:05:52.222Z,8.10
2022-09-05T05:06:15.486Z,9.13
2022-09-05T05:17:54.475Z,9.77
2022-09-05T05:18:09.411Z,9.57
2022-09-05T05:22:01.479Z,8.50
2022-09-05T05:27:08.155Z,6.88
2022-09-05T05:32:54.101Z,7.97
2022-09-05T05:37:56.152Z,7.40
2022-09-05T05:43:12.395Z,6.28
2022-09-05T05:48:42.178Z,6.07
2022-09-05T05:53:58.384Z,5.78
2022-09-05T05:59:38.414Z,6.90
2022-09-05T06:05:38.087Z,6.28
2022-09-05T06:14:53.053Z,5.20
2022-09-05T06:16:58.511Z,5.38
2022-09-05T06:22:54.095Z,6.13
2022-09-05T06:28:30.305Z,6.00
2022-09-05T06:39:46.549Z,5.68
2022-09-05T06:45:28.274Z,6.28
2022-09-05T06:51:06.918Z,7.50
2022-09-05T06:56:25.919Z,7.65
2022-09-05T07:02:00.162Z,7.10
2022-09-05T07:07:13.175Z,7.70
2022-09-05T07:12:18.693Z,5.78
2022-09-05T07:18:06.488Z,6.68
2022-09-05T07:23:47.669Z,4.18
2022-09-05T07:28:33.820Z,6.22
2022-09-05T07:33:32.236Z,5.55
2022-09-05T07:39:28.168Z,5.25
2022-09-05T07:44:56.588Z,10.38
2022-09-05T07:52:19.111Z,4.65
2022-09-05T07:57:00.913Z,4.80
2022-09-05T08:00:59.218Z,4.35
2022-09-05T08:06:01.695Z,3.92
2022-09-05T08:11:23.587Z,3.80
2022-09-05T08:22:02.556Z,3.45
2022-09-05T08:27:15.982Z,3.38
2022-09-05T08:33:11.227Z,2.60
2022-09-05T08:38:25.133Z,3.15
2022-09-05T08:46:35.827Z,3.67
2022-09-05T08:49:32.258Z,3.40
2022-09-05T08:55:10.125Z,3.83
2022-09-05T09:00:20.821Z,3.28
2022-09-05T09:06:15.621Z,3.60
2022-09-05T09:11:28.628Z,3.60
2022-09-05T09:16:34.963Z,2.50
2022-09-05T09:21:56.576Z,3.28
2022-09-05T09:27:15.219Z,3.47
2022-09-05T09:32:43.518Z,2.90
2022-09-05T09:38:18.850Z,3.30
2022-09-05T09:43:25.026Z,4.50
2022-09-05T09:48:46.397Z,3.47
2022-09-05T09:54:15.930Z,3.20
2022-09-05T10:00:22.614Z,3.35
2022-09-05T10:10:45.152Z,3.40
2022-09-05T10:17:19.654Z,3.13
2022-09-05T10:22:36.555Z,3.20
2022-09-05T10:28:00.413Z,3.88
2022-09-05T10:35:14.945Z,3.17
2022-09-05T10:39:18.405Z,3.83
2022-09-05T10:44:32.594Z,3.40
2022-09-05T10:49:36.098Z,3.60
2022-09-05T10:54:53.027Z,4.15
2022-09-05T11:02:24.775Z,5.13
2022-09-05T11:05:51.685Z,4.20
2022-09-05T11:11:01.159Z,3.85
2022-09-05T11:22:23.701Z,4.28
2022-09-05T11:28:13.306Z,4.60
2022-09-05T11:39:45.991Z,4.00
2022-09-05T11:46:44.745Z,4.00
2022-09-05T11:52:59.082Z,3.63
2022-09-05T12:50:22.630Z,3.40
2022-09-05T13:03:11.348Z,4.07
2022-09-05T13:07:06.974Z,3.70
2022-09-05T13:18:00.698Z,3.88
2022-09-05T13:29:10.631Z,3.60
2022-09-05T13:40:19.621Z,4.10
2022-09-05T13:45:20.341Z,3.40
2022-09-05T13:50:26.130Z,4.28
2022-09-05T13:55:45.390Z,5.18
2022-09-05T14:01:14.484Z,4.78
2022-09-05T14:12:32.631Z,3.92
2022-09-05T14:17:55.225Z,4.32
2022-09-05T14:23:04.385Z,3.50
2022-09-05T14:28:10.795Z,3.80
2022-09-05T14:37:41.990Z,3.72
2022-09-05T14:39:19.379Z,3.60
2022-09-05T14:45:17.735Z,3.47
2022-09-05T14:50:38.566Z,3.53
2022-09-05T14:55:38.129Z,3.45
2022-09-05T15:02:44.575Z,3.33
2022-09-05T15:06:15.484Z,4.20
2022-09-05T15:12:23.644Z,4.30
2022-09-05T15:17:04.575Z,3.92
2022-09-05T15:22:27.422Z,4.22
2022-09-05T15:27:37.576Z,4.10
2022-09-05T15:32:50.932Z,4.78
2022-09-05T15:43:30.515Z,3.63
2022-09-05T15:48:35.378Z,6.25
2022-09-05T15:53:37.755Z,3.60
2022-09-05T15:59:03.526Z,4.15
2022-09-05T16:09:37.255Z,4.13
2022-09-05T16:10:48.477Z,4.00
2022-09-05T16:18:58.598Z,4.68
2022-09-05T16:23:31.194Z,4.50
2022-09-05T16:27:24.696Z,4.30
2022-09-05T16:32:26.039Z,5.40
2022-09-05T16:37:41.010Z,4.30
2022-09-05T16:43:01.675Z,4.28
2022-09-05T16:48:24.361Z,4.35
2022-09-05T16:53:58.108Z,5.35
2022-09-05T16:59:30.885Z,6.72
2022-09-05T17:05:03.649Z,5.20
2022-09-05T17:11:03.731Z,12.75
2022-09-05T17:16:03.398Z,6.60
2022-09-05T17:21:43.436Z,9.15
2022-09-05T17:33:00.198Z,8.07
2022-09-05T17:45:04.009Z,8.15
2022-09-05T17:50:45.211Z,7.07
2022-09-05T17:56:26.996Z,6.35
2022-09-05T18:01:28.494Z,7.00
2022-09-05T18:07:00.563Z,6.30
2022-09-05T18:12:34.502Z,5.85
2022-09-05T18:18:31.317Z,5.15
2022-09-05T18:24:02.011Z,4.68
2022-09-05T18:29:15.901Z,3.80
2022-09-05T18:35:08.664Z,4.47
2022-09-05T18:40:43.705Z,5.05
2022-09-05T18:45:52.437Z,4.95
2022-09-05T18:50:53.107Z,4.93
2022-09-05T18:56:20.386Z,4.60
2022-09-05T19:01:30.643Z,4.10
2022-09-05T19:06:35.733Z,4.10
2022-09-05T19:11:52.697Z,3.58
2022-09-05T19:17:02.665Z,3.85
2022-09-05T19:23:08.713Z,4.38
2022-09-05T19:28:58.410Z,3.25
2022-09-05T19:37:09.791Z,3.55
2022-09-05T19:47:38.544Z,3.42
2022-09-05T19:49:18.123Z,3.63
2022-09-05T19:54:25.965Z,2.90
2022-09-05T20:00:11.560Z,3.38
2022-09-05T20:05:25.477Z,3.42
2022-09-05T20:17:28.135Z,3.40
2022-09-05T20:23:26.203Z,3.65
2022-09-05T20:28:38.038Z,2.97
2022-09-05T20:43:16.579Z,3.30
2022-09-05T20:51:14.112Z,3.28
2022-09-05T20:54:21.957Z,2.95
2022-09-05T20:57:25.042Z,3.45
2022-09-05T21:02:33.165Z,3.60
2022-09-05T21:08:13.011Z,3.38
2022-09-05T21:13:41.243Z,3.70
2022-09-05T21:18:52.626Z,2.90
2022-09-05T21:24:18.212Z,3.47
2022-09-05T21:29:32.566Z,3.08
2022-09-05T21:34:33.836Z,2.88
2022-09-05T21:39:56.931Z,3.42
2022-09-05T21:47:42.728Z,3.55
2022-09-05T21:50:53.647Z,2.85
2022-09-05T21:59:14.458Z,2.95
2022-09-05T22:01:12.277Z,2.75
2022-09-05T22:06:11.482Z,3.00
2022-09-05T22:11:12.819Z,2.63
2022-09-05T22:16:24.408Z,2.77
2022-09-05T22:21:45.331Z,2.75
2022-09-05T22:27:10.717Z,3.10
2022-09-05T22:32:07.771Z,3.28
2022-09-05T22:37:05.222Z,3.00
2022-09-05T22:42:02.454Z,3.33
2022-09-05T22:47:06.478Z,2.70
2022-09-05T22:52:09.486Z,2.70
2022-09-05T22:57:08.084Z,2.58
2022-09-05T23:02:13.862Z,2.53
2022-09-05T23:08:02.860Z,2.53
2022-09-05T23:13:16.384Z,3.42
2022-09-05T23:18:14.709Z,2.47
2022-09-05T23:23:15.845Z,2.60
2022-09-05T23:28:21.919Z,2.67
2022-09-05T23:33:20.622Z,3.20
2022-09-05T23:38:25.641Z,2.30
2022-09-05T23:43:25.203Z,2.22
2022-09-05T23:48:44.813Z,2.15
2022-09-05T23:53:48.383Z,2.40
2022-09-05T23:58:45.745Z,2.00
